createdAt,value
2022-10-16T00:02:23.353Z,19.31
2022-10-16T00:05:46.996Z,19.35
2022-10-16T00:08:20.285Z,19.35
2022-10-16T00:14:29.874Z,19.41
2022-10-16T00:17:31.163Z,19.42
2022-10-16T00:20:04.189Z,19.42
2022-10-16T00:22:38.755Z,19.40
2022-10-16T00:25:17.198Z,19.40
2022-10-16T00:27:50.555Z,19.43
2022-10-16T00:30:53.978Z,19.42
2022-10-16T00:33:51.972Z,19.41
2022-10-16T00:36:56.505Z,19.37
2022-10-16T00:42:35.463Z,19.23
2022-10-16T00:45:19.270Z,19.15
2022-10-16T00:51:12.160Z,19.02
2022-10-16T00:57:38.051Z,18.85
2022-10-16T01:00:27.618Z,18.80
2022-10-16T01:06:31.804Z,18.71
2022-10-16T01:09:18.903Z,18.65
2022-10-16T01:12:29.743Z,18.58
2022-10-16T01:18:44.451Z,18.51
2022-10-16T01:21:24.977Z,18.50
2022-10-16T01:24:30.020Z,18.49
2022-10-16T01:27:22.734Z,18.51
2022-10-16T01:30:10.210Z,18.50
2022-10-16T01:32:51.758Z,18.46
2022-10-16T01:35:53.838Z,18.43
2022-10-16T01:39:06.575Z,18.40
2022-10-16T01:41:51.453Z,18.29
2022-10-16T01:47:57.660Z,18.22
2022-10-16T01:50:58.964Z,18.19
2022-10-16T01:54:02.652Z,18.16
2022-10-16T01:56:38.344Z,18.16
2022-10-16T01:59:36.608Z,18.15
2022-10-16T02:02:37.903Z,18.14
2022-10-16T02:13:03.450Z,17.99
2022-10-16T02:23:04.041Z,17.83
2022-10-16T02:25:48.958Z,17.80
2022-10-16T02:28:49.963Z,17.77
2022-10-16T02:31:30.500Z,17.72
2022-10-16T02:34:53.997Z,17.65
2022-10-16T02:38:19.154Z,17.61
2022-10-16T02:40:56.265Z,17.56
2022-10-16T02:47:21.606Z,17.38
2022-10-16T02:49:59.675Z,17.28
2022-10-16T02:52:36.839Z,17.22
2022-10-16T02:55:18.988Z,17.16
2022-10-16T02:58:00.919Z,17.10
2022-10-16T03:01:00.448Z,17.08
2022-10-16T03:03:59.105Z,17.04
2022-10-16T03:10:20.075Z,16.96
2022-10-16T03:13:00.685Z,16.93
2022-10-16T03:15:35.265Z,16.91
2022-10-16T03:18:32.310Z,16.88
2022-10-16T03:21:06.825Z,16.87
2022-10-16T03:24:30.781Z,16.84
2022-10-16T03:27:29.293Z,16.80
2022-10-16T03:34:18.876Z,16.68
2022-10-16T03:36:54.493Z,16.62
2022-10-16T03:42:57.608Z,16.59
2022-10-16T03:45:31.374Z,16.57
2022-10-16T03:48:05.658Z,16.54
2022-10-16T03:54:04.996Z,16.46
2022-10-16T03:57:28.012Z,16.42
2022-10-16T04:00:22.366Z,16.40
2022-10-16T04:03:05.145Z,16.35
2022-10-16T04:06:50.990Z,16.30
2022-10-16T04:09:49.831Z,16.28
2022-10-16T04:12:30.804Z,16.25
2022-10-16T04:15:51.334Z,16.21
2022-10-16T04:22:10.511Z,16.18
2022-10-16T04:24:47.295Z,16.19
2022-10-16T04:30:35.811Z,16.19
2022-10-16T04:33:17.172Z,16.19
2022-10-16T04:35:59.049Z,16.16
2022-10-16T04:38:39.902Z,16.19
2022-10-16T04:41:38.381Z,16.20
2022-10-16T04:54:28.649Z,16.18
2022-10-16T04:57:31.941Z,16.18
2022-10-16T05:00:05.348Z,16.21
2022-10-16T05:02:46.085Z,16.22
2022-10-16T05:05:51.428Z,16.24
2022-10-16T05:08:51.935Z,16.27
2022-10-16T05:15:35.254Z,16.31
2022-10-16T05:18:38.570Z,16.31
2022-10-16T05:21:22.096Z,16.33
2022-10-16T05:24:05.381Z,16.38
2022-10-16T05:27:31.234Z,16.41
2022-10-16T05:30:29.796Z,16.43
2022-10-16T05:33:33.102Z,16.45
2022-10-16T05:36:40.135Z,16.54
2022-10-16T05:39:36.987Z,16.65
2022-10-16T05:42:34.858Z,16.70
2022-10-16T05:45:41.799Z,16.78
2022-10-16T05:48:17.246Z,16.99
2022-10-16T05:54:01.833Z,17.12
2022-10-16T05:57:10.280Z,17.19
2022-10-16T05:59:47.127Z,17.29
2022-10-16T06:02:25.713Z,17.29
2022-10-16T06:05:05.336Z,17.27
2022-10-16T06:11:09.106Z,17.27
2022-10-16T06:14:13.117Z,17.30
2022-10-16T06:17:10.639Z,17.34
2022-10-16T06:20:12.326Z,17.44
2022-10-16T06:22:50.872Z,17.58
2022-10-16T06:25:25.662Z,17.68
2022-10-16T06:28:04.947Z,17.84
2022-10-16T06:31:04.173Z,17.98
2022-10-16T06:33:48.985Z,18.11
2022-10-16T06:36:23.800Z,18.23
2022-10-16T06:42:47.242Z,18.45
2022-10-16T06:45:47.816Z,18.63
2022-10-16T06:49:16.568Z,18.79
2022-10-16T06:51:57.113Z,18.93
2022-10-16T06:55:25.709Z,19.07
2022-10-16T06:58:01.460Z,19.21
2022-10-16T07:00:41.956Z,19.36
2022-10-16T07:03:48.185Z,19.55
2022-10-16T07:06:49.066Z,19.84
2022-10-16T07:09:26.990Z,20.07
2022-10-16T07:12:27.055Z,20.30
2022-10-16T07:15:29.103Z,20.47
2022-10-16T07:18:06.290Z,20.59
2022-10-16T07:23:47.760Z,20.88
2022-10-16T07:26:47.966Z,20.98
2022-10-16T07:29:25.502Z,21.05
2022-10-16T07:32:01.284Z,21.11
2022-10-16T07:37:59.887Z,21.29
2022-10-16T07:40:34.518Z,21.44
2022-10-16T07:43:09.227Z,21.60
2022-10-16T07:46:10.979Z,21.78
2022-10-16T07:49:10.732Z,21.92
2022-10-16T07:51:45.791Z,21.99
2022-10-16T07:54:46.347Z,22.13
2022-10-16T07:57:48.391Z,22.19
2022-10-16T08:00:27.555Z,22.26
2022-10-16T08:03:29.024Z,22.34
2022-10-16T08:06:07.471Z,22.37
2022-10-16T08:09:10.639Z,22.40
2022-10-16T08:12:06.932Z,22.44
2022-10-16T08:15:03.804Z,22.49
2022-10-16T08:17:38.570Z,22.57
2022-10-16T08:20:42.304Z,22.66
2022-10-16T08:23:44.128Z,22.85
2022-10-16T08:26:43.109Z,23.02
2022-10-16T08:29:18.302Z,23.15
2022-10-16T08:31:54.947Z,23.31
2022-10-16T08:34:31.434Z,23.52
2022-10-16T08:37:07.979Z,23.72
2022-10-16T08:39:45.492Z,23.94
2022-10-16T08:42:35.744Z,24.10
2022-10-16T08:45:24.154Z,24.22
2022-10-16T08:48:06.811Z,24.33
2022-10-16T08:51:08.375Z,24.50
2022-10-16T08:57:43.558Z,24.81
2022-10-16T09:00:28.802Z,24.98
2022-10-16T09:03:15.247Z,25.11
2022-10-16T09:07:00.254Z,25.14
2022-10-16T09:10:24.493Z,24.98
2022-10-16T09:13:25.587Z,24.86
2022-10-16T09:16:34.177Z,24.89
2022-10-16T09:23:08.126Z,25.01
2022-10-16T09:25:57.175Z,25.01
2022-10-16T09:28:34.040Z,25.01
2022-10-16T09:31:35.387Z,25.17
2022-10-16T09:34:16.551Z,25.28
2022-10-16T09:36:52.473Z,25.35
2022-10-16T09:39:53.082Z,25.20
2022-10-16T09:42:36.916Z,25.11
2022-10-16T09:45:26.945Z,25.12
2022-10-16T09:48:32.745Z,25.28
2022-10-16T09:51:22.335Z,25.61
2022-10-16T09:54:02.977Z,25.68
2022-10-16T10:00:25.049Z,26.02
2022-10-16T10:06:40.664Z,26.34
2022-10-16T10:09:32.283Z,26.45
2022-10-16T10:12:32.591Z,26.55
2022-10-16T10:15:43.063Z,26.58
2022-10-16T10:18:27.728Z,26.70
2022-10-16T10:21:51.215Z,26.80
2022-10-16T10:24:53.841Z,26.72
2022-10-16T10:31:17.406Z,26.74
2022-10-16T10:37:46.612Z,26.79
2022-10-16T10:40:41.195Z,26.74
2022-10-16T10:44:06.016Z,26.78
2022-10-16T10:47:09.390Z,26.85
2022-10-16T10:49:55.494Z,26.88
2022-10-16T10:52:53.718Z,26.89
2022-10-16T10:56:00.690Z,26.90
2022-10-16T11:06:56.470Z,26.87
2022-10-16T11:09:58.664Z,26.92
2022-10-16T11:12:39.869Z,26.97
2022-10-16T11:19:53.356Z,26.97
2022-10-16T11:22:42.275Z,26.96
2022-10-16T11:25:21.125Z,26.97
2022-10-16T11:28:47.243Z,27.01
2022-10-16T11:31:29.973Z,27.05
2022-10-16T11:34:34.117Z,27.12
2022-10-16T11:37:44.964Z,27.19
2022-10-16T11:40:30.883Z,27.24
2022-10-16T11:43:35.176Z,27.37
2022-10-16T11:46:22.629Z,27.56
2022-10-16T11:49:43.464Z,27.76
2022-10-16T11:52:49.481Z,28.00
2022-10-16T12:02:55.209Z,28.41
2022-10-16T12:12:49.396Z,28.95
2022-10-16T12:15:59.311Z,29.08
2022-10-16T12:18:34.923Z,29.19
2022-10-16T12:21:16.447Z,29.28
2022-10-16T12:27:40.063Z,29.39
2022-10-16T12:31:01.140Z,29.45
2022-10-16T12:34:22.499Z,29.38
2022-10-16T12:41:12.737Z,29.24
2022-10-16T12:44:12.415Z,29.18
2022-10-16T12:50:36.689Z,28.98
2022-10-16T12:53:25.430Z,28.90
2022-10-16T12:56:31.241Z,29.07
2022-10-16T12:59:31.306Z,29.12
2022-10-16T13:02:36.890Z,28.99
2022-10-16T13:05:31.396Z,28.78
2022-10-16T13:08:39.655Z,28.62
2022-10-16T13:11:29.537Z,28.35
2022-10-16T13:21:42.021Z,27.47
2022-10-16T13:25:02.972Z,27.33
2022-10-16T13:28:13.334Z,27.16
2022-10-16T13:31:15.575Z,27.10
2022-10-16T13:40:27.447Z,27.09
2022-10-16T13:43:28.049Z,27.04
2022-10-16T13:49:14.449Z,26.94
2022-10-16T13:52:43.086Z,26.90
2022-10-16T13:55:20.923Z,26.83
2022-10-16T14:04:55.090Z,26.68
2022-10-16T14:07:33.639Z,26.77
2022-10-16T14:17:23.360Z,26.76
2022-10-16T14:20:04.179Z,26.68
2022-10-16T14:23:31.929Z,26.62
2022-10-16T14:26:34.307Z,26.52
2022-10-16T14:29:17.359Z,26.43
2022-10-16T14:32:29.447Z,26.41
2022-10-16T14:35:08.445Z,26.34
2022-10-16T14:37:42.333Z,26.32
2022-10-16T14:44:10.101Z,26.42
2022-10-16T14:46:50.681Z,26.49
2022-10-16T14:49:30.382Z,26.60
2022-10-16T14:52:21.735Z,26.92
2022-10-16T14:55:19.107Z,27.28
2022-10-16T14:58:01.639Z,27.48
2022-10-16T15:00:40.143Z,27.44
2022-10-16T15:03:40.241Z,27.31
2022-10-16T15:06:19.044Z,27.16
2022-10-16T15:08:53.737Z,26.94
2022-10-16T15:11:51.376Z,26.76
2022-10-16T15:14:30.621Z,26.58
2022-10-16T15:17:31.292Z,26.44
2022-10-16T15:20:36.541Z,26.32
2022-10-16T15:23:16.929Z,26.13
2022-10-16T15:29:16.994Z,25.77
2022-10-16T15:31:49.328Z,25.60
2022-10-16T15:35:09.373Z,25.49
2022-10-16T15:38:10.507Z,25.36
2022-10-16T15:41:10.933Z,25.26
2022-10-16T15:43:49.286Z,25.19
2022-10-16T15:46:54.086Z,25.10
2022-10-16T15:49:55.055Z,25.03
2022-10-16T15:52:37.354Z,24.95
2022-10-16T15:55:14.206Z,24.86
2022-10-16T15:57:47.109Z,24.79
2022-10-16T16:00:28.426Z,24.72
2022-10-16T16:03:03.770Z,24.62
2022-10-16T16:05:41.759Z,24.51
2022-10-16T16:08:18.775Z,24.36
2022-10-16T16:11:02.409Z,24.20
2022-10-16T16:13:38.239Z,24.06
2022-10-16T16:16:18.020Z,23.92
2022-10-16T16:18:53.702Z,23.83
2022-10-16T16:22:37.237Z,23.80
2022-10-16T16:25:10.094Z,23.68
2022-10-16T16:28:34.308Z,23.58
2022-10-16T16:31:11.692Z,23.46
2022-10-16T16:33:45.623Z,23.35
2022-10-16T16:39:05.013Z,23.16
2022-10-16T16:41:38.151Z,23.08
2022-10-16T16:44:14.982Z,22.95
2022-10-16T16:47:36.110Z,22.83
2022-10-16T16:50:14.209Z,22.68
2022-10-16T16:52:46.225Z,22.55
2022-10-16T16:55:19.973Z,22.47
2022-10-16T16:57:59.326Z,22.44
2022-10-16T17:00:34.070Z,22.40
2022-10-16T17:03:34.411Z,22.31
2022-10-16T17:06:22.012Z,22.22
2022-10-16T17:09:26.609Z,22.17
2022-10-16T17:12:01.898Z,22.07
2022-10-16T17:14:38.161Z,21.95
2022-10-16T17:17:39.197Z,21.90
2022-10-16T17:20:20.182Z,21.85
2022-10-16T17:22:55.554Z,21.75
2022-10-16T17:25:32.012Z,21.67
2022-10-16T17:28:32.514Z,21.59
2022-10-16T17:31:54.959Z,21.56
2022-10-16T17:35:19.549Z,21.54
2022-10-16T17:37:51.308Z,21.47
2022-10-16T17:40:29.625Z,21.45
2022-10-16T17:43:06.592Z,21.42
2022-10-16T17:48:43.521Z,21.44
2022-10-16T17:51:18.100Z,21.42
2022-10-16T17:56:53.928Z,21.36
2022-10-16T17:59:30.665Z,21.35
2022-10-16T18:02:28.021Z,21.31
2022-10-16T18:05:01.365Z,21.29
2022-10-16T18:07:36.613Z,21.29
2022-10-16T18:10:20.968Z,21.26
2022-10-16T18:13:20.731Z,21.27
2022-10-16T18:16:27.964Z,21.29
2022-10-16T18:19:05.136Z,21.31
2022-10-16T18:21:43.291Z,21.29
2022-10-16T18:24:40.447Z,21.26
2022-10-16T18:27:14.528Z,21.24
2022-10-16T18:34:24.556Z,21.21
2022-10-16T18:41:11.491Z,21.07
2022-10-16T18:43:46.186Z,21.03
2022-10-16T18:46:25.060Z,20.98
2022-10-16T18:49:01.655Z,20.97
2022-10-16T18:52:27.408Z,20.94
2022-10-16T18:55:35.368Z,20.88
2022-10-16T19:01:17.990Z,20.79
2022-10-16T19:03:59.680Z,20.80
2022-10-16T19:10:25.922Z,20.76
2022-10-16T19:13:01.584Z,20.74
2022-10-16T19:16:09.321Z,20.73
2022-10-16T19:19:43.222Z,20.67
2022-10-16T19:22:29.067Z,20.63
2022-10-16T19:25:08.718Z,20.62
2022-10-16T19:27:48.804Z,20.59
2022-10-16T19:30:26.961Z,20.54
2022-10-16T19:33:09.002Z,20.48
2022-10-16T19:42:31.375Z,20.25
2022-10-16T19:45:03.593Z,20.22
2022-10-16T19:48:01.218Z,20.15
2022-10-16T19:51:00.351Z,20.07
2022-10-16T19:53:35.965Z,20.02
2022-10-16T19:56:34.246Z,19.96
2022-10-16T19:59:09.946Z,19.92
2022-10-16T20:01:53.807Z,19.88
2022-10-16T20:04:51.235Z,19.85
2022-10-16T20:07:37.809Z,19.85
2022-10-16T20:16:22.780Z,19.74
2022-10-16T20:22:44.280Z,19.64
2022-10-16T20:25:19.104Z,19.59
2022-10-16T20:28:21.616Z,19.58
2022-10-16T20:31:52.551Z,19.55
2022-10-16T20:35:16.209Z,19.48
2022-10-16T20:37:51.168Z,19.41
2022-10-16T20:40:31.942Z,19.34
2022-10-16T20:50:03.849Z,19.09
2022-10-16T20:52:38.056Z,19.06
2022-10-16T20:55:12.698Z,19.05
2022-10-16T20:57:48.894Z,19.05
2022-10-16T21:00:23.411Z,19.03
2022-10-16T21:02:59.160Z,19.01
2022-10-16T21:05:34.976Z,19.03
2022-10-16T21:08:07.653Z,19.01
2022-10-16T21:10:41.023Z,19.01
2022-10-16T21:13:15.241Z,18.99
2022-10-16T21:15:49.922Z,18.98
2022-10-16T21:18:22.500Z,18.97
2022-10-16T21:20:54.900Z,18.94
2022-10-16T21:23:27.032Z,18.91
2022-10-16T21:26:03.092Z,18.88
2022-10-16T21:28:36.041Z,18.81
2022-10-16T21:31:15.759Z,18.74
2022-10-16T21:33:48.765Z,18.71
2022-10-16T21:36:26.293Z,18.68
2022-10-16T21:39:05.700Z,18.66
2022-10-16T21:41:44.921Z,18.56
2022-10-16T21:44:20.255Z,18.50
2022-10-16T21:46:54.389Z,18.50
2022-10-16T21:49:28.453Z,18.47
2022-10-16T21:52:00.460Z,18.42
2022-10-16T21:54:32.614Z,18.35
2022-10-16T21:57:08.461Z,18.32
2022-10-16T21:59:42.191Z,18.31
2022-10-16T22:02:15.252Z,18.29
2022-10-16T22:04:47.281Z,18.26
2022-10-16T22:07:20.214Z,18.24
2022-10-16T22:09:54.923Z,18.20
2022-10-16T22:12:28.013Z,18.11
2022-10-16T22:15:08.508Z,18.05
2022-10-16T22:17:42.367Z,18.04
2022-10-16T22:20:15.486Z,18.04
2022-10-16T22:22:48.240Z,17.98
2022-10-16T22:25:20.651Z,17.95
2022-10-16T22:27:54.563Z,17.94
2022-10-16T22:30:27.678Z,17.93
2022-10-16T22:33:00.479Z,17.86
2022-10-16T22:35:32.833Z,17.84
2022-10-16T22:38:05.086Z,17.80
2022-10-16T22:40:41.238Z,17.76
2022-10-16T22:43:14.770Z,17.74
2022-10-16T22:45:49.465Z,17.68
2022-10-16T22:48:22.638Z,17.66
2022-10-16T22:50:57.296Z,17.58
2022-10-16T22:53:30.591Z,17.50
2022-10-16T22:56:02.847Z,17.40
2022-10-16T22:58:35.611Z,17.37
2022-10-16T23:01:13.210Z,17.39
2022-10-16T23:03:46.127Z,17.42
2022-10-16T23:06:19.294Z,17.37
2022-10-16T23:08:55.528Z,17.36
2022-10-16T23:11:28.585Z,17.38
2022-10-16T23:14:01.407Z,17.39
2022-10-16T23:16:35.579Z,17.40
2022-10-16T23:21:43.722Z,17.30
2022-10-16T23:24:18.418Z,17.26
2022-10-16T23:26:51.279Z,17.19
2022-10-16T23:29:23.408Z,17.22
2022-10-16T23:31:59.440Z,17.22
2022-10-16T23:34:32.209Z,17.18
2022-10-16T23:37:06.733Z,17.16
2022-10-16T23:39:41.660Z,17.16
2022-10-16T23:42:13.935Z,17.18
2022-10-16T23:44:48.321Z,17.15
2022-10-16T23:47:21.203Z,17.14
2022-10-16T23:49:57.200Z,17.12
2022-10-16T23:52:29.419Z,17.10
2022-10-16T23:55:03.100Z,17.03
2022-10-16T23:57:35.666Z,17.00
